Verner, Canada
Current Conditions -  °F | °C
As of 8:00 AM on Wednesday 22 Oct 2014 (Local Time) from CYYB Reporting Station
Clear Clear  
Wind Chill: 22°   Ceiling: Unl
Heat Index: 30°   Visibility: 15mi
Dew Point: 28°   Wind: 9mph
Humidity: 93%   Direction: 30°NNE
Pressure: 30.33"   Gusts: NA
Location:  46.4°N, 80.12°W
Report Text: CYYB 221200Z 03008KT 15SM SKC M01/M02 A3033 RMK SLP288
Loading
Personal Weather Stations






























Interactive Weather Map
Tropical Storm Tracking
New forecast layout! Learn more

10-Day Weather Forecast

Advertisements
Track Severe Weather on mobile